Terminal Aerodrome Forecast
Issued by NWS Dodge City, KS

Home | Current Version | Previous Version | Text Only | Print | Product List | Glossary On
Versions: 1 2 3 4 5 6 7 8 9 10 11 12 13 14 15 16 17
000
FTUS43 KDDC 070520
TAFDDC
TAF
KDDC 070520Z 0706/0806 11008KT P6SM BKN080
     FM071100 10010KT P6SM BKN070
     FM071600 07015G20KT P6SM OVC045
      TEMPO 0716/0720 3SM -SN OVC025
     FM072000 04015G23KT P6SM VCSH OVC030
     FM080000 01011KT P6SM BKN040=

USA.gov is the U.S. government's official web portal to all federal, state and local government web resources and services.